Time;durP1;ratioP1;P1;durP2;ratioP2;P2;SDS_P1;SDS_P2;PMS_P1;PMS_P2;Temp;Humidity;BMP_temperature;BMP_pressure;BME280_temperature;BME280_humidity;BME280_pressure;Samples;Min_cycle;Max_cycle;Signal;HPM_P1;HPM_P2
2021/06/18 00:01:23;;;;;;;8.40;6.10;;;25.50;42.40;;;;;;5118712;28;20499;-87
2021/06/18 00:03:51;;;;;;;20.33;6.80;;;25.40;42.90;;;;;;5119434;28;20445;-87
2021/06/18 00:06:19;;;;;;;17.10;6.70;;;25.50;42.50;;;;;;5118742;28;20496;-87
2021/06/18 00:08:46;;;;;;;11.63;6.60;;;25.60;42.30;;;;;;5117886;28;20524;-87
2021/06/18 00:11:13;;;;;;;15.27;7.17;;;25.60;42.20;;;;;;5118200;28;20955;-87
2021/06/18 00:13:40;;;;;;;10.20;7.23;;;25.50;43.30;;;;;;5119124;28;20562;-87
2021/06/18 00:16:07;;;;;;;14.60;7.20;;;25.30;43.80;;;;;;5117983;28;21014;-87
2021/06/18 00:18:34;;;;;;;21.47;7.30;;;25.20;44.30;;;;;;5118108;28;20449;-86
2021/06/18 00:21:01;;;;;;;10.50;7.30;;;25.20;44.30;;;;;;5118043;28;20452;-86
2021/06/18 00:23:30;;;;;;;8.50;5.47;;;25.20;44.50;;;;;;5116251;28;20461;-87
2021/06/18 00:25:57;;;;;;;14.93;6.83;;;25.30;42.70;;;;;;5118658;28;20569;-87
2021/06/18 00:28:23;;;;;;;19.50;7.27;;;25.40;44.70;;;;;;5117648;28;20456;-86
2021/06/18 00:30:50;;;;;;;12.97;8.17;;;25.20;45.10;;;;;;5117453;28;20465;-87
2021/06/18 00:33:17;;;;;;;14.63;8.10;;;25.00;45.70;;;;;;5125245;28;20480;-86
2021/06/18 00:35:44;;;;;;;14.80;8.60;;;25.10;46.40;;;;;;5135163;28;20468;-86
2021/06/18 00:38:11;;;;;;;12.20;8.30;;;25.10;45.90;;;;;;5133665;28;20461;-87
2021/06/18 00:40:40;;;;;;;9.40;7.33;;;25.10;45.40;;;;;;5119262;28;20496;-87
2021/06/18 00:43:07;;;;;;;14.70;7.63;;;25.00;45.50;;;;;;5117130;28;20663;-86
2021/06/18 00:45:34;;;;;;;8.93;5.70;;;24.70;47.10;;;;;;5119125;28;20504;-86
2021/06/18 00:48:01;;;;;;;13.30;7.50;;;24.60;46.60;;;;;;5118547;28;20432;-87
2021/06/18 00:50:29;;;;;;;12.20;7.90;;;24.60;46.60;;;;;;5118648;28;20594;-87
2021/06/18 00:52:56;;;;;;;17.03;8.33;;;24.70;46.90;;;;;;5117395;28;20434;-87
2021/06/18 00:55:23;;;;;;;20.17;11.83;;;24.70;46.90;;;;;;5118717;28;20874;-87
2021/06/18 00:57:52;;;;;;;15.00;8.10;;;24.80;46.80;;;;;;5118676;28;20477;-87
2021/06/18 01:00:20;;;;;;;27.10;11.03;;;24.80;47.00;;;;;;5118629;28;20441;-87
2021/06/18 01:02:48;;;;;;;8.07;6.80;;;24.80;46.60;;;;;;5118057;28;20895;-87
2021/06/18 01:05:17;;;;;;;23.10;7.23;;;24.80;45.60;;;;;;5117636;28;20549;-87
2021/06/18 01:07:51;;;;;;;10.67;6.40;;;24.60;45.50;;;;;;5117254;28;20911;-87
2021/06/18 01:10:29;;;;;;;16.23;6.57;;;24.60;44.80;;;;;;5116739;28;20433;-87
2021/06/18 01:13:08;;;;;;;18.73;7.60;;;24.70;44.40;;;;;;5117361;28;20422;-87
2021/06/18 01:15:48;;;;;;;13.70;7.57;;;24.60;44.90;;;;;;5116456;28;20512;-87
2021/06/18 01:18:20;;;;;;;17.10;8.10;;;24.40;46.50;;;;;;5117486;28;20442;-87
2021/06/18 01:21:03;;;;;;;16.67;8.57;;;24.10;48.30;;;;;;5117016;28;20489;-87
2021/06/18 01:23:49;;;;;;;26.50;8.23;;;23.80;48.30;;;;;;5115061;28;20502;-87
2021/06/18 01:26:31;;;;;;;12.63;9.27;;;23.80;49.20;;;;;;5115471;28;20524;-87
2021/06/18 01:29:02;;;;;;;16.03;8.60;;;23.70;50.00;;;;;;5115394;28;20524;-86
2021/06/18 01:31:31;;;;;;;15.80;8.87;;;23.80;50.20;;;;;;5124460;28;20424;-87
2021/06/18 01:34:03;;;;;;;13.20;8.90;;;23.60;50.70;;;;;;5111508;28;20511;-88
2021/06/18 01:36:33;;;;;;;12.33;7.97;;;23.80;50.30;;;;;;5132819;28;20465;-88
2021/06/18 01:39:02;;;;;;;17.30;10.40;;;24.00;49.60;;;;;;5137363;28;20442;-87
2021/06/18 01:41:31;;;;;;;15.00;9.33;;;23.90;50.10;;;;;;5137088;28;20438;-87
2021/06/18 01:44:01;;;;;;;19.10;9.70;;;23.80;50.50;;;;;;5129146;28;20429;-87
2021/06/18 01:46:33;;;;;;;16.73;7.80;;;23.70;50.10;;;;;;5114840;28;20540;-87
2021/06/18 01:49:03;;;;;;;17.20;9.47;;;23.90;49.80;;;;;;5115117;28;20834;-87
2021/06/18 01:51:32;;;;;;;29.20;9.73;;;24.10;49.40;;;;;;5115312;28;20470;-86
2021/06/18 01:54:01;;;;;;;16.47;8.67;;;24.20;48.60;;;;;;5115255;28;20473;-86
2021/06/18 01:56:29;;;;;;;15.10;8.20;;;24.00;48.90;;;;;;5115028;28;20470;-87
2021/06/18 01:58:58;;;;;;;11.90;8.03;;;24.00;48.90;;;;;;5115251;28;20477;-87
2021/06/18 02:01:32;;;;;;;14.47;8.10;;;24.20;48.30;;;;;;5114942;28;20495;-87
2021/06/18 02:03:59;;;;;;;15.80;8.23;;;24.20;48.80;;;;;;5115081;28;20430;-87
2021/06/18 02:06:28;;;;;;;17.70;8.00;;;24.20;48.10;;;;;;5114785;28;20841;-87
2021/06/18 02:08:58;;;;;;;15.80;6.60;;;24.20;47.60;;;;;;5114571;28;20426;-87
2021/06/18 02:11:27;;;;;;;27.70;11.53;;;24.30;46.50;;;;;;5115178;28;20469;-87
2021/06/18 02:13:55;;;;;;;26.03;10.40;;;24.40;47.30;;;;;;5114526;28;20441;-87
2021/06/18 02:16:27;;;;;;;16.73;8.07;;;24.30;47.60;;;;;;5114191;28;21005;-87
2021/06/18 02:18:55;;;;;;;11.60;7.17;;;24.20;47.20;;;;;;5115105;28;20465;-87
2021/06/18 02:21:25;;;;;;;22.07;7.80;;;24.20;46.00;;;;;;5114636;28;21074;-87
2021/06/18 02:23:53;;;;;;;16.43;7.80;;;24.20;46.10;;;;;;5115433;28;20430;-87
2021/06/18 02:26:24;;;;;;;11.63;6.03;;;24.10;46.10;;;;;;5116104;28;21030;-87
2021/06/18 02:28:52;;;;;;;10.70;6.97;;;24.10;45.60;;;;;;5115340;28;20448;-87
2021/06/18 02:31:21;;;;;;;14.60;7.60;;;24.20;45.70;;;;;;5114700;28;20477;-87
2021/06/18 02:33:50;;;;;;;10.53;6.90;;;24.20;45.30;;;;;;5114874;28;20479;-87
2021/06/18 02:36:17;;;;;;;18.40;7.97;;;24.00;45.60;;;;;;5115007;28;20445;-87
2021/06/18 02:38:45;;;;;;;17.80;8.13;;;24.00;46.90;;;;;;5114619;28;20426;-87
2021/06/18 02:41:12;;;;;;;11.20;8.10;;;23.70;47.90;;;;;;5114705;28;20453;-87
2021/06/18 02:43:39;;;;;;;16.00;8.33;;;23.60;47.60;;;;;;5114212;28;20470;-87
2021/06/18 02:46:06;;;;;;;8.30;7.17;;;23.60;47.70;;;;;;5114441;28;20504;-87
2021/06/18 02:48:38;;;;;;;8.40;7.27;;;23.80;47.70;;;;;;5115165;28;20795;-87
2021/06/18 02:51:12;;;;;;;8.60;5.93;;;23.70;46.70;;;;;;5114861;28;20430;-87
2021/06/18 02:53:45;;;;;;;10.47;5.90;;;23.70;44.30;;;;;;5114965;28;20425;-86
2021/06/18 02:56:18;;;;;;;15.93;5.97;;;23.70;43.20;;;;;;5114698;28;20500;-87
2021/06/18 02:58:54;;;;;;;15.00;6.47;;;23.80;43.00;;;;;;5114535;28;20416;-86
2021/06/18 03:01:25;;;;;;;17.07;9.43;;;23.80;43.50;;;;;;5114691;28;20516;-86
2021/06/18 03:03:56;;;;;;;24.33;11.40;;;23.80;45.50;;;;;;5114604;28;20469;-87
2021/06/18 03:06:25;;;;;;;12.10;8.80;;;23.50;47.70;;;;;;5115519;28;20497;-87
2021/06/18 03:08:58;;;;;;;21.43;10.43;;;23.10;47.70;;;;;;5118819;28;20537;-87
2021/06/18 03:11:29;;;;;;;13.77;9.13;;;23.00;48.20;;;;;;5118170;28;20857;-86
2021/06/18 03:13:59;;;;;;;13.23;9.07;;;23.20;48.20;;;;;;5117915;28;20483;-86
2021/06/18 03:16:29;;;;;;;11.07;8.53;;;23.40;47.60;;;;;;5117931;28;20477;-87
2021/06/18 03:18:59;;;;;;;9.03;7.33;;;23.30;47.50;;;;;;5117973;28;20930;-87
2021/06/18 03:21:31;;;;;;;12.87;8.10;;;23.30;47.50;;;;;;5118059;28;20500;-87
2021/06/18 03:24:01;;;;;;;15.23;7.10;;;23.40;47.30;;;;;;5127010;28;20457;-86
2021/06/18 03:26:30;;;;;;;11.37;7.43;;;23.40;47.10;;;;;;5141388;28;20457;-86
2021/06/18 03:28:58;;;;;;;11.00;7.70;;;23.40;47.10;;;;;;5141282;28;20497;-87
2021/06/18 03:31:27;;;;;;;8.97;6.87;;;23.30;47.40;;;;;;5140796;28;20430;-87
2021/06/18 03:33:55;;;;;;;13.23;7.23;;;23.40;46.60;;;;;;5141235;28;20433;-87
2021/06/18 03:36:24;;;;;;;10.47;7.07;;;23.50;46.60;;;;;;5140321;28;20462;-87
2021/06/18 03:38:53;;;;;;;8.90;5.57;;;23.50;46.30;;;;;;5132530;28;20438;-87
2021/06/18 03:41:21;;;;;;;13.67;7.40;;;23.80;45.60;;;;;;5117741;28;20480;-87
2021/06/18 03:43:50;;;;;;;9.17;6.03;;;24.10;44.90;;;;;;5117824;28;20567;-87
2021/06/18 03:46:18;;;;;;;13.87;6.93;;;23.90;45.20;;;;;;5117623;28;20458;-87
2021/06/18 03:48:47;;;;;;;13.80;7.30;;;23.90;45.30;;;;;;5117953;28;20449;-87
2021/06/18 03:51:15;;;;;;;22.23;7.47;;;23.70;46.30;;;;;;5118173;28;20450;-86
2021/06/18 03:53:42;;;;;;;14.47;7.43;;;23.60;46.60;;;;;;5117746;28;20449;-86
2021/06/18 03:56:12;;;;;;;10.70;7.07;;;23.60;46.50;;;;;;5117190;28;20515;-87
2021/06/18 03:58:41;;;;;;;9.23;7.03;;;23.50;46.60;;;;;;5117254;28;20434;-87
2021/06/18 04:01:11;;;;;;;14.07;8.10;;;23.50;46.60;;;;;;5117468;28;20477;-87
2021/06/18 04:03:40;;;;;;;8.70;7.10;;;23.50;47.10;;;;;;5117641;28;20483;-86
2021/06/18 04:06:08;;;;;;;11.23;7.50;;;23.60;46.90;;;;;;5117174;28;20966;-86
2021/06/18 04:08:37;;;;;;;15.80;6.80;;;23.80;46.50;;;;;;5117540;28;20465;-86
2021/06/18 04:11:05;;;;;;;14.10;7.20;;;23.80;46.40;;;;;;5117179;28;20457;-86
2021/06/18 04:13:34;;;;;;;8.53;6.40;;;24.00;46.10;;;;;;5117119;28;20484;-86
2021/06/18 04:16:01;;;;;;;17.57;7.93;;;24.20;45.40;;;;;;5117545;28;20469;-87
2021/06/18 04:18:31;;;;;;;10.17;7.40;;;23.90;46.60;;;;;;5118555;28;20998;-87
2021/06/18 04:21:03;;;;;;;20.70;8.67;;;23.80;47.30;;;;;;5120854;28;20517;-88
2021/06/18 04:23:30;;;;;;;14.13;7.37;;;24.00;47.20;;;;;;5134133;28;20442;-88
2021/06/18 04:25:58;;;;;;;11.50;8.43;;;24.30;46.90;;;;;;5139589;28;20458;-87
2021/06/18 04:28:25;;;;;;;16.07;8.70;;;24.30;46.90;;;;;;5137114;28;20461;-88
2021/06/18 04:30:54;;;;;;;20.17;8.80;;;24.40;46.80;;;;;;5140281;28;20449;-84
2021/06/18 04:33:21;;;;;;;26.80;8.70;;;24.50;46.90;;;;;;5140529;28;20461;-86
2021/06/18 04:35:47;;;;;;;13.03;9.20;;;24.50;46.90;;;;;;5139250;28;20478;-88
2021/06/18 04:38:14;;;;;;;15.27;8.17;;;24.50;46.90;;;;;;5137846;28;20464;-88
2021/06/18 04:40:42;;;;;;;17.30;8.70;;;24.60;46.70;;;;;;5139825;28;20433;-87
2021/06/18 04:43:09;;;;;;;19.10;8.57;;;24.70;47.20;;;;;;5137854;28;20504;-88
2021/06/18 04:45:36;;;;;;;15.13;9.97;;;24.80;46.70;;;;;;5137488;28;20483;-86
2021/06/18 04:48:05;;;;;;;16.70;9.23;;;24.90;46.90;;;;;;5140335;28;20447;-85
2021/06/18 04:50:32;;;;;;;15.50;8.90;;;24.90;46.60;;;;;;5140183;28;20447;-87
2021/06/18 04:53:00;;;;;;;12.10;7.13;;;25.00;46.50;;;;;;5127792;28;20446;-88
2021/06/18 04:55:28;;;;;;;19.00;9.33;;;25.20;46.20;;;;;;5131091;28;20479;-85
2021/06/18 04:57:55;;;;;;;17.87;9.40;;;25.40;46.00;;;;;;5140017;28;20441;-85
2021/06/18 05:00:23;;;;;;;20.93;10.20;;;25.30;45.90;;;;;;5140052;28;20410;-85
2021/06/18 05:02:50;;;;;;;12.23;8.70;;;25.30;45.90;;;;;;5139942;28;20491;-85
2021/06/18 05:05:19;;;;;;;18.00;9.60;;;25.60;45.40;;;;;;5138540;28;20551;-87
2021/06/18 05:07:46;;;;;;;14.27;8.80;;;25.60;45.60;;;;;;5116607;28;20977;-89
2021/06/18 05:10:13;;;;;;;18.67;8.73;;;25.80;45.30;;;;;;5117392;28;20473;-88
2021/06/18 05:12:40;;;;;;;12.87;8.73;;;25.80;45.00;;;;;;5117448;28;20477;-89
2021/06/18 05:15:08;;;;;;;9.53;7.47;;;25.80;45.00;;;;;;5117536;28;20477;-88
2021/06/18 05:17:35;;;;;;;14.10;6.70;;;26.00;44.20;;;;;;5117446;28;20442;-89
2021/06/18 05:20:02;;;;;;;16.87;9.70;;;26.30;43.30;;;;;;5116611;28;20492;-88
2021/06/18 05:22:30;;;;;;;13.33;8.70;;;26.40;43.00;;;;;;5116532;28;20516;-89
2021/06/18 05:24:57;;;;;;;8.93;5.73;;;26.50;43.60;;;;;;5116327;28;20550;-88
2021/06/18 05:27:24;;;;;;;12.10;7.87;;;26.60;41.60;;;;;;5116014;28;20498;-89
2021/06/18 05:29:51;;;;;;;24.57;8.23;;;26.50;41.70;;;;;;5116130;28;20430;-89
2021/06/18 05:32:18;;;;;;;13.47;8.33;;;26.50;41.80;;;;;;5115956;28;20484;-89
2021/06/18 05:34:46;;;;;;;11.57;8.10;;;26.60;41.50;;;;;;5115355;28;20952;-89
2021/06/18 05:37:14;;;;;;;16.90;7.90;;;26.80;41.40;;;;;;5115727;28;20494;-89
2021/06/18 05:39:43;;;;;;;17.77;7.87;;;27.10;40.60;;;;;;5115841;28;20537;-89
2021/06/18 05:42:11;;;;;;;11.20;6.80;;;28.10;39.10;;;;;;5115429;28;20461;-89
2021/06/18 05:44:38;;;;;;;11.87;7.50;;;29.60;38.10;;;;;;5115727;28;20493;-89
2021/06/18 05:47:05;;;;;;;15.80;6.60;;;31.10;35.70;;;;;;5115543;28;20480;-89
2021/06/18 05:49:32;;;;;;;12.13;6.30;;;32.60;34.30;;;;;;5115864;28;20445;-89
2021/06/18 05:51:59;;;;;;;10.50;5.50;;;34.40;30.30;;;;;;5115495;28;20506;-89
2021/06/18 05:54:27;;;;;;;12.07;5.63;;;35.20;29.50;;;;;;5115078;28;20441;-89
2021/06/18 05:56:55;;;;;;;16.30;5.93;;;35.60;28.80;;;;;;5115263;28;20473;-90
2021/06/18 05:59:22;;;;;;;14.60;6.10;;;36.40;27.20;;;;;;5115172;28;20517;-89
2021/06/18 06:01:49;;;;;;;10.93;6.10;;;37.10;26.70;;;;;;5115617;28;20880;-88
2021/06/18 06:04:16;;;;;;;17.20;8.80;;;37.80;25.10;;;;;;5114821;28;20476;-88
2021/06/18 06:06:43;;;;;;;10.97;5.50;;;38.30;24.60;;;;;;5115926;28;20543;-89
2021/06/18 06:09:10;;;;;;;11.33;5.37;;;38.30;24.20;;;;;;5115204;28;20461;-88
2021/06/18 06:11:37;;;;;;;12.13;5.33;;;38.60;23.90;;;;;;5115162;28;20448;-88
2021/06/18 06:14:05;;;;;;;9.07;5.93;;;38.90;23.50;;;;;;5115827;28;20466;-88
2021/06/18 06:16:34;;;;;;;10.00;5.40;;;39.40;23.00;;;;;;5114955;28;20483;-89
2021/06/18 06:19:02;;;;;;;18.10;5.33;;;39.30;23.00;;;;;;5115418;28;20449;-89
2021/06/18 06:21:29;;;;;;;9.60;5.07;;;38.90;22.80;;;;;;5115037;28;20472;-89
2021/06/18 06:23:56;;;;;;;12.90;5.87;;;39.20;22.90;;;;;;5115336;28;21058;-90
2021/06/18 06:26:23;;;;;;;27.23;5.63;;;38.90;22.20;;;;;;5115080;28;20508;-87
2021/06/18 06:28:50;;;;;;;16.83;6.90;;;38.40;22.50;;;;;;5115445;28;20266;-89
2021/06/18 06:31:18;;;;;;;12.50;5.57;;;39.20;22.50;;;;;;5115500;28;20211;-88
2021/06/18 06:33:45;;;;;;;11.23;6.07;;;39.40;22.20;;;;;;5115383;28;20455;-88
2021/06/18 06:36:12;;;;;;;9.53;6.13;;;39.10;22.90;;;;;;5114822;28;20548;-88
2021/06/18 06:38:39;;;;;;;14.77;6.00;;;39.00;22.80;;;;;;5114792;28;20548;-88
2021/06/18 06:41:07;;;;;;;20.07;6.80;;;39.00;23.60;;;;;;5114908;28;20230;-88
2021/06/18 06:43:34;;;;;;;15.60;7.30;;;39.50;23.10;;;;;;5118763;28;20560;-88
2021/06/18 06:46:01;;;;;;;10.80;6.77;;;39.70;23.20;;;;;;5119085;28;20219;-88
2021/06/18 06:48:29;;;;;;;13.23;5.60;;;40.20;22.30;;;;;;5119285;28;20205;-88
2021/06/18 06:50:56;;;;;;;18.20;6.30;;;40.70;21.50;;;;;;5118915;28;20443;-87
2021/06/18 06:53:23;;;;;;;15.13;5.70;;;40.20;22.10;;;;;;5118904;28;20330;-86
2021/06/18 06:55:50;;;;;;;10.10;5.40;;;40.20;21.50;;;;;;5118440;28;20254;-87
2021/06/18 06:58:18;;;;;;;12.30;5.10;;;40.20;21.40;;;;;;5118461;28;20755;-87
2021/06/18 07:00:45;;;;;;;11.13;4.83;;;40.90;20.10;;;;;;5118859;28;20285;-87
2021/06/18 07:03:12;;;;;;;8.10;5.20;;;41.10;18.90;;;;;;5119261;28;20215;-87
2021/06/18 07:05:40;;;;;;;9.07;4.83;;;40.90;18.80;;;;;;5119478;28;20765;-87
2021/06/18 07:08:18;;;;;;;7.10;4.23;;;41.10;18.40;;;;;;5118761;28;20600;-87
2021/06/18 07:10:45;;;;;;;6.03;3.90;;;41.30;17.20;;;;;;5118513;28;20314;-88
2021/06/18 07:13:12;;;;;;;10.40;4.70;;;41.50;16.70;;;;;;5119256;28;20203;-87
2021/06/18 07:15:39;;;;;;;6.07;4.30;;;40.80;17.40;;;;;;5118150;28;20655;-88
2021/06/18 07:18:08;;;;;;;6.80;4.23;;;40.30;17.60;;;;;;5118050;28;20241;-88
2021/06/18 07:20:35;;;;;;;10.93;4.17;;;40.90;17.90;;;;;;5118383;28;20184;-88
2021/06/18 07:23:03;;;;;;;5.93;4.10;;;40.60;18.00;;;;;;5118599;28;20227;-87
2021/06/18 07:25:30;;;;;;;9.50;4.20;;;40.50;18.20;;;;;;5118019;28;20243;-87
2021/06/18 07:27:57;;;;;;;6.07;4.20;;;40.90;18.50;;;;;;5117894;28;20722;-87
2021/06/18 07:30:24;;;;;;;10.47;4.77;;;41.00;17.80;;;;;;5117988;28;20202;-87
2021/06/18 07:32:51;;;;;;;11.00;4.50;;;41.60;17.30;;;;;;5117863;28;20210;-87
2021/06/18 07:35:18;;;;;;;17.87;4.53;;;41.20;17.20;;;;;;5117991;28;20222;-88
2021/06/18 07:37:45;;;;;;;11.20;4.43;;;40.90;17.60;;;;;;5118002;28;20199;-88
2021/06/18 07:40:15;;;;;;;11.53;4.73;;;40.90;17.80;;;;;;5117642;28;20297;-88
2021/06/18 07:42:43;;;;;;;9.20;4.93;;;41.00;17.30;;;;;;5117808;28;20260;-89
2021/06/18 07:45:11;;;;;;;8.20;4.70;;;41.40;17.00;;;;;;5122905;28;20223;-88
2021/06/18 07:47:39;;;;;;;9.53;4.37;;;41.10;17.70;;;;;;5136486;28;20200;-87
2021/06/18 07:50:08;;;;;;;13.40;4.63;;;40.70;17.90;;;;;;5123295;28;20195;-89
2021/06/18 07:52:35;;;;;;;9.70;4.53;;;41.10;17.70;;;;;;5117743;28;20291;-88
2021/06/18 07:55:02;;;;;;;8.50;4.70;;;40.60;17.90;;;;;;5118012;28;20251;-89
2021/06/18 07:57:30;;;;;;;14.60;4.80;;;40.90;17.60;;;;;;5117903;28;20226;-89
2021/06/18 07:59:57;;;;;;;10.57;4.60;;;41.00;17.60;;;;;;5117646;28;20381;-89
2021/06/18 08:02:24;;;;;;;6.10;4.23;;;40.60;17.90;;;;;;5117673;28;20214;-89
2021/06/18 08:04:52;;;;;;;13.53;4.50;;;40.40;18.30;;;;;;5117507;28;20250;-88
2021/06/18 08:07:19;;;;;;;8.90;4.90;;;40.20;18.30;;;;;;5117086;28;20299;-88
2021/06/18 08:09:46;;;;;;;14.50;4.50;;;40.20;17.90;;;;;;5116905;28;20196;-88
2021/06/18 08:12:13;;;;;;;10.00;5.00;;;40.20;18.30;;;;;;5132720;28;20199;-88
2021/06/18 08:14:42;;;;;;;7.50;4.33;;;40.20;18.20;;;;;;5132407;28;20175;-88
2021/06/18 08:17:09;;;;;;;17.33;4.73;;;40.70;18.20;;;;;;5119354;28;20237;-89
2021/06/18 08:19:36;;;;;;;8.20;4.23;;;40.80;17.90;;;;;;5117108;28;20191;-89
2021/06/18 08:22:05;;;;;;;9.40;5.00;;;41.20;17.40;;;;;;5117701;28;20729;-89
2021/06/18 08:24:32;;;;;;;9.40;4.40;;;41.20;17.70;;;;;;5117221;28;20223;-88
2021/06/18 08:26:59;;;;;;;10.20;4.33;;;40.60;17.50;;;;;;5117531;28;20227;-89
2021/06/18 08:29:26;;;;;;;7.80;4.70;;;40.20;17.80;;;;;;5117606;28;20198;-88
2021/06/18 08:31:54;;;;;;;16.87;4.57;;;39.70;18.60;;;;;;5117435;28;20253;-89
2021/06/18 08:34:21;;;;;;;8.83;4.57;;;39.70;18.90;;;;;;5117249;28;20234;-89
2021/06/18 08:36:48;;;;;;;10.30;4.63;;;39.40;19.10;;;;;;5117012;28;20651;-89
2021/06/18 08:39:15;;;;;;;8.20;4.90;;;39.80;18.60;;;;;;5116608;28;20222;-89
2021/06/18 08:41:43;;;;;;;5.80;4.33;;;39.60;18.80;;;;;;5117500;28;20210;-88
2021/06/18 08:44:11;;;;;;;6.77;4.87;;;39.30;19.00;;;;;;5117032;28;20219;-89
2021/06/18 08:46:38;;;;;;;7.37;4.90;;;39.20;19.30;;;;;;5116584;28;20824;-88
2021/06/18 08:49:06;;;;;;;5.90;4.10;;;39.00;19.40;;;;;;5116396;28;20856;-87
2021/06/18 08:51:33;;;;;;;8.90;4.80;;;38.80;19.50;;;;;;5116147;28;20483;-86
2021/06/18 08:54:00;;;;;;;25.40;4.63;;;38.70;19.60;;;;;;5116694;28;20441;-86
2021/06/18 08:56:27;;;;;;;8.40;5.40;;;38.60;20.10;;;;;;5116679;28;20465;-86
2021/06/18 08:58:54;;;;;;;8.13;4.63;;;39.00;19.50;;;;;;5116746;28;20521;-85
2021/06/18 09:01:21;;;;;;;7.97;4.97;;;39.40;19.10;;;;;;5117634;28;20488;-85
2021/06/18 09:03:49;;;;;;;8.13;4.77;;;38.60;19.90;;;;;;5117166;28;20480;-86
2021/06/18 09:06:32;;;;;;;12.50;4.97;;;38.40;20.20;;;;;;5116368;28;20468;-85
2021/06/18 09:09:14;;;;;;;8.50;5.30;;;38.60;20.30;;;;;;5117569;28;20482;-86
2021/06/18 09:11:43;;;;;;;13.00;4.43;;;39.00;20.10;;;;;;5117376;28;20516;-86
2021/06/18 09:14:30;;;;;;;7.43;4.77;;;38.20;20.40;;;;;;5117115;28;20482;-86
2021/06/18 09:17:12;;;;;;;9.93;4.90;;;38.10;21.00;;;;;;5112053;28;20530;-86
2021/06/18 09:19:42;;;;;;;11.40;4.87;;;38.50;20.70;;;;;;5117248;28;20899;-85
2021/06/18 09:22:13;;;;;;;14.67;4.80;;;38.70;20.50;;;;;;5117697;28;20437;-86
2021/06/18 09:24:42;;;;;;;8.87;5.23;;;38.00;21.00;;;;;;5119020;28;20487;-85
2021/06/18 09:27:10;;;;;;;9.37;5.70;;;37.00;21.90;;;;;;5117932;28;20433;-85
2021/06/18 09:29:39;;;;;;;16.10;5.03;;;36.50;22.40;;;;;;5116600;28;20445;-85
2021/06/18 09:32:07;;;;;;;12.60;5.27;;;36.70;22.70;;;;;;5116527;28;20461;-85
2021/06/18 09:34:44;;;;;;;9.03;5.30;;;36.50;23.10;;;;;;5118742;28;20437;-86
2021/06/18 09:37:25;;;;;;;18.13;5.50;;;36.10;23.40;;;;;;5118421;28;20486;-85
2021/06/18 09:40:10;;;;;;;7.57;4.70;;;36.40;23.40;;;;;;5120352;28;20429;-86
2021/06/18 09:42:48;;;;;;;9.17;5.30;;;35.60;24.00;;;;;;5120847;28;20430;-87
2021/06/18 09:45:17;;;;;;;9.47;5.60;;;35.00;24.80;;;;;;5119867;28;20485;-87
2021/06/18 09:47:44;;;;;;;8.37;5.23;;;35.10;25.00;;;;;;5119954;28;20540;-87
2021/06/18 09:50:27;;;;;;;9.20;5.60;;;35.20;24.60;;;;;;5119566;28;20445;-87
2021/06/18 09:53:11;;;;;;;13.03;5.40;;;35.30;24.50;;;;;;5120582;28;20442;-87
2021/06/18 09:55:38;;;;;;;7.10;5.33;;;35.80;24.30;;;;;;5121471;28;20496;-86
2021/06/18 09:58:05;;;;;;;14.37;5.97;;;35.80;24.10;;;;;;5123075;28;20477;-87
2021/06/18 10:00:32;;;;;;;6.47;5.40;;;35.30;24.20;;;;;;5128926;28;20456;-86
2021/06/18 10:03:00;;;;;;;7.53;5.97;;;34.90;24.70;;;;;;5138958;28;20426;-86
2021/06/18 10:05:28;;;;;;;10.03;5.77;;;34.50;25.50;;;;;;5138374;28;20477;-85
2021/06/18 10:07:57;;;;;;;14.37;5.73;;;35.20;24.80;;;;;;5126981;28;20441;-87
2021/06/18 10:10:25;;;;;;;13.97;6.40;;;35.50;24.30;;;;;;5126537;28;20432;-85
2021/06/18 10:12:54;;;;;;;7.00;5.53;;;35.80;23.60;;;;;;5138813;28;20437;-85
2021/06/18 10:15:22;;;;;;;9.13;5.87;;;36.00;23.50;;;;;;5138496;28;20508;-86
2021/06/18 10:17:51;;;;;;;11.23;5.23;;;36.10;23.50;;;;;;5138280;28;20456;-86
2021/06/18 10:20:20;;;;;;;7.03;4.93;;;36.30;23.60;;;;;;5129580;28;20418;-87
2021/06/18 10:22:55;;;;;;;10.87;5.73;;;36.10;23.30;;;;;;5118083;28;20508;-87
2021/06/18 10:25:28;;;;;;;7.17;4.90;;;35.90;23.70;;;;;;5117376;28;20505;-88
2021/06/18 10:27:57;;;;;;;13.33;5.10;;;35.60;23.60;;;;;;5117576;28;20438;-87
2021/06/18 10:30:32;;;;;;;10.27;5.30;;;35.50;23.70;;;;;;5116119;28;20434;-89
2021/06/18 10:33:00;;;;;;;7.40;5.07;;;35.90;23.30;;;;;;5116225;28;20430;-88
2021/06/18 10:35:51;;;;;;;7.03;4.60;;;36.00;22.60;;;;;;5115264;28;20538;-88
2021/06/18 10:38:32;;;;;;;9.67;5.60;;;35.60;23.30;;;;;;5115651;28;20437;-89
2021/06/18 10:41:03;;;;;;;7.33;5.23;;;35.50;24.40;;;;;;5115940;28;20463;-88
2021/06/18 10:43:39;;;;;;;12.73;5.13;;;35.50;24.10;;;;;;5133752;28;20418;-85
2021/06/18 10:46:17;;;;;;;10.37;5.13;;;35.40;24.00;;;;;;5138429;28;20468;-85
2021/06/18 10:49:08;;;;;;;5.77;4.87;;;35.50;24.70;;;;;;5117436;28;20498;-89
2021/06/18 10:51:42;;;;;;;22.13;6.33;;;35.70;23.60;;;;;;5116189;28;20468;-88
2021/06/18 10:54:12;;;;;;;9.90;5.57;;;35.50;23.50;;;;;;5116137;28;20440;-90
2021/06/18 10:57:03;;;;;;;11.23;5.30;;;35.20;23.40;;;;;;5116277;28;20465;-88
2021/06/18 10:59:35;;;;;;;11.80;4.93;;;35.30;22.50;;;;;;5116034;28;20461;-89
2021/06/18 11:02:24;;;;;;;10.67;5.40;;;35.30;23.20;;;;;;5115924;28;20510;-89
2021/06/18 11:04:53;;;;;;;6.00;4.73;;;35.50;23.10;;;;;;5115984;28;20477;-89
2021/06/18 11:07:25;;;;;;;11.83;5.87;;;35.80;23.10;;;;;;5115408;28;20489;-88
2021/06/18 11:09:53;;;;;;;15.17;4.97;;;35.30;23.00;;;;;;5115413;28;20458;-88
2021/06/18 11:12:48;;;;;;;7.13;4.80;;;34.90;23.70;;;;;;5115953;28;20445;-88
2021/06/18 11:15:37;;;;;;;9.37;5.17;;;34.70;23.90;;;;;;5116407;28;21050;-88
2021/06/18 11:18:13;;;;;;;7.53;4.90;;;34.90;23.20;;;;;;5115877;28;20854;-87
2021/06/18 11:21:01;;;;;;;9.83;5.00;;;35.20;22.90;;;;;;5122510;28;20433;-88
2021/06/18 11:23:35;;;;;;;6.87;5.10;;;34.90;23.00;;;;;;5117729;28;20438;-88
2021/06/18 11:26:07;;;;;;;9.10;4.73;;;35.00;22.80;;;;;;5116375;28;20484;-88
2021/06/18 11:28:47;;;;;;;9.83;5.00;;;35.20;22.70;;;;;;5121636;28;20847;-88
2021/06/18 11:31:19;;;;;;;5.40;4.60;;;35.20;21.90;;;;;;5121313;28;20429;-88
2021/06/18 11:33:55;;;;;;;8.07;4.67;;;35.30;22.50;;;;;;5120524;28;20429;-87
2021/06/18 11:36:50;;;;;;;7.10;4.87;;;35.70;22.20;;;;;;5120663;28;21009;-88
2021/06/18 11:39:29;;;;;;;12.93;5.13;;;35.70;21.30;;;;;;5120233;28;20461;-87
2021/06/18 11:41:59;;;;;;;8.47;4.93;;;36.00;21.20;;;;;;5118072;28;20406;-88
2021/06/18 11:44:27;;;;;;;11.80;4.60;;;35.60;22.00;;;;;;5119233;28;20589;-89
2021/06/18 11:46:57;;;;;;;17.17;5.73;;;35.30;22.50;;;;;;5118887;28;20501;-88
2021/06/18 11:49:26;;;;;;;13.90;5.03;;;35.90;22.20;;;;;;5119549;28;20456;-88
2021/06/18 11:51:59;;;;;;;6.60;4.97;;;36.10;22.10;;;;;;5118400;28;20417;-89
2021/06/18 11:54:31;;;;;;;10.17;4.90;;;36.00;22.30;;;;;;5118555;28;20434;-88
2021/06/18 11:57:03;;;;;;;5.40;4.40;;;35.90;21.90;;;;;;5118311;28;20631;-88
2021/06/18 11:59:32;;;;;;;9.60;4.67;;;35.20;22.50;;;;;;5119865;28;20567;-88
2021/06/18 12:01:59;;;;;;;10.53;4.60;;;35.20;22.60;;;;;;5129480;28;20421;-88
2021/06/18 12:04:27;;;;;;;10.03;5.70;;;36.00;22.30;;;;;;5139249;28;20433;-87
2021/06/18 12:06:55;;;;;;;10.53;6.00;;;36.30;21.40;;;;;;5130178;28;20513;-87
2021/06/18 12:09:23;;;;;;;8.37;5.30;;;36.00;22.10;;;;;;5123393;28;20437;-88
2021/06/18 12:11:59;;;;;;;10.63;4.90;;;35.80;21.70;;;;;;5118701;28;20452;-87
2021/06/18 12:14:33;;;;;;;9.23;4.80;;;35.90;22.00;;;;;;5118486;28;20422;-87
2021/06/18 12:17:02;;;;;;;16.53;4.87;;;35.30;23.20;;;;;;5121715;28;20449;-88
2021/06/18 12:19:30;;;;;;;11.43;5.23;;;35.10;23.20;;;;;;5119990;28;20434;-88
2021/06/18 12:22:02;;;;;;;11.03;5.20;;;35.50;23.20;;;;;;5119452;28;20443;-88
2021/06/18 12:24:33;;;;;;;9.40;5.27;;;35.40;22.70;;;;;;5130067;28;20426;-87
2021/06/18 12:27:00;;;;;;;7.20;4.90;;;35.60;22.70;;;;;;5138862;28;20445;-87
2021/06/18 12:29:27;;;;;;;14.03;5.23;;;36.00;22.40;;;;;;5139716;28;20446;-88
2021/06/18 12:31:56;;;;;;;5.80;5.13;;;36.20;22.30;;;;;;5139858;28;20414;-87
2021/06/18 12:34:25;;;;;;;8.50;4.50;;;36.50;21.70;;;;;;5139053;28;20475;-85
2021/06/18 12:37:01;;;;;;;7.50;4.63;;;36.10;22.00;;;;;;5138401;28;20486;-86
2021/06/18 12:39:28;;;;;;;6.63;5.10;;;36.10;22.10;;;;;;5122430;28;20429;-87
2021/06/18 12:41:55;;;;;;;9.50;5.20;;;36.50;21.90;;;;;;5118163;28;20926;-89
2021/06/18 12:44:35;;;;;;;7.83;5.47;;;36.40;22.20;;;;;;5118928;28;20448;-87
2021/06/18 12:47:09;;;;;;;11.17;5.07;;;35.70;22.50;;;;;;5118076;28;21055;-87
2021/06/18 12:49:37;;;;;;;6.50;4.27;;;36.00;22.40;;;;;;5119353;28;20525;-86
2021/06/18 12:52:13;;;;;;;9.97;4.90;;;36.40;22.30;;;;;;5121521;28;20543;-88
2021/06/18 12:54:41;;;;;;;10.53;5.80;;;36.40;22.50;;;;;;5120492;28;20979;-87